Weather History for Alpine, TX

Change the Weather History Date:

Tuesday, November 26, 2013

  Actual Average (KMRF) Record (KMRF)
Temperature  
Mean Temperature 36 °F -  
Max Temperature 46 °F 59 °F 77 °F (1997)
Min Temperature 25 °F 30 °F 15 °F (2007)
Degree Days  
Heating Degree Days 30    
Moisture  
Dew Point 21 °F    
Average Humidity 58    
Maximum Humidity 89    
Minimum Humidity 30    
Precipitation  
Precipitation 0.00 in - - ()
Sea Level Pressure  
Sea Level Pressure 30.40 in    
Wind  
Wind Speed 16 mph (North)    
Max Wind Speed 31 mph    
Max Gust Speed 38 mph    
Visibility 10 miles    
Events      
Averages and records for this station are not official NWS values.
T = Trace of Precipitation, MM = Missing Value Source: NWS Daily Summary

Daily Weather History Graph

Daily Weather History Graph

Search for Another Location

Airport:

Trip Planner

Search our weather history database for the weather conditions in past years. The results will help you decide how hot, cold, wet, or windy it might be!

Date:

Astronomy

Nov. 26, 2013 Rise Set
Actual Time 7:29 AM CST 5:54 PM CST
Civil Twilight 7:04 AM CST 6:20 PM CST
Nautical Twilight 6:34 AM CST 6:49 PM CST
Astronomical Twilight 6:05 AM CST 7:18 PM CST
Moon 1:02 AM CST (11/26) 1:37 PM CST (11/26)
Length of Visible Light 11h 16m
Length of Day
10h 24m
Last Quarter, 41% of the Moon is Illuminated
Nov 26
Last Quarter
Dec 2
New
Dec 9
First Quarter
Dec 17
Full
Dec 25
Last Quarter

Hourly Weather History & Observations

Time (CST) Temp. Windchill Dew Point Humidity Pressure Visibility Wind Dir Wind Speed Gust Speed Precip Events Conditions
12:15 AM 37.4 °F 26.9 °F 28.8 °F 71% 30.27 in 10.0 mi North 20.7 mph 26.5 mph N/A   Overcast
12:35 AM 36.9 °F 26.5 °F 28.4 °F 71% 30.28 in 10.0 mi North 19.6 mph 27.6 mph N/A   Overcast
12:55 AM 36.9 °F 25.4 °F 28.4 °F 71% 30.27 in 10.0 mi North 24.2 mph 29.9 mph N/A   Overcast
1:15 AM 36.7 °F 25.4 °F 27.1 °F 68% 30.28 in 10.0 mi North 23.0 mph 33.4 mph N/A   Overcast
1:35 AM 36.5 °F 24.2 °F 27.1 °F 69% 30.28 in 10.0 mi NNW 27.6 mph 38.0 mph N/A   Overcast
1:55 AM 36.0 °F 22.8 °F 25.2 °F 65% 30.29 in 10.0 mi NNW 31.1 mph 38.0 mph N/A   Mostly Cloudy
2:15 AM 35.1 °F 23.0 °F 23.9 °F 64% 30.29 in 10.0 mi North 24.2 mph 38.0 mph N/A   Overcast
2:35 AM 34.9 °F 22.7 °F 23.9 °F 64% 30.30 in 10.0 mi NNW 24.2 mph 29.9 mph N/A   Overcast
2:55 AM 34.3 °F 22.6 °F 22.6 °F 62% 30.30 in 10.0 mi NNW 21.9 mph 32.2 mph N/A   Overcast
3:15 AM 33.3 °F 20.6 °F 23.0 °F 66% 30.30 in 10.0 mi NNW 24.2 mph 27.6 mph N/A   Scattered Clouds
3:35 AM 32.9 °F 21.3 °F 23.0 °F 67% 30.29 in 10.0 mi North 19.6 mph 25.3 mph N/A   Clear
3:55 AM 33.1 °F 20.3 °F 21.6 °F 63% 30.29 in 10.0 mi NNW 24.2 mph 34.5 mph N/A   Clear
4:15 AM 32.5 °F 20.8 °F 21.2 °F 63% 30.30 in 10.0 mi NNW 19.6 mph 25.3 mph N/A   Clear
4:35 AM 32.4 °F 19.4 °F 22.1 °F 66% 30.30 in 10.0 mi North 24.2 mph 31.1 mph N/A   Clear
4:55 AM 32.2 °F 19.1 °F 22.8 °F 68% 30.30 in 10.0 mi North 24.2 mph 29.9 mph N/A   Clear
5:15 AM 32.2 °F 19.7 °F 23.2 °F 69% 30.30 in 10.0 mi North 21.9 mph 31.1 mph N/A   Clear
5:35 AM 32.0 °F 19.2 °F 23.0 °F 69% 30.31 in 10.0 mi North 23.0 mph 31.1 mph N/A   Clear
5:55 AM 31.8 °F 19.3 °F 22.5 °F 68% 30.31 in 10.0 mi North 21.9 mph 28.8 mph N/A   Clear
6:15 AM 31.8 °F 18.7 °F 22.3 °F 68% 30.33 in 10.0 mi NNW 24.2 mph 29.9 mph N/A   Clear
6:35 AM 31.5 °F 20.1 °F 21.9 °F 68% 30.35 in 10.0 mi NNW 17.3 mph 23.0 mph N/A   Clear
6:55 AM 31.1 °F 20.5 °F 21.9 °F 69% 30.36 in 10.0 mi North 15.0 mph 19.6 mph N/A   Clear
7:15 AM 30.7 °F 22.6 °F 22.6 °F 72% 30.38 in 10.0 mi North 9.2 mph - N/A   Clear
7:35 AM 30.9 °F 22.8 °F 22.1 °F 70% 30.39 in 10.0 mi North 9.2 mph - N/A   Clear
7:55 AM 31.1 °F 23.7 °F 22.8 °F 71% 30.40 in 10.0 mi NNE 8.1 mph 17.3 mph N/A   Clear
8:15 AM 32.0 °F 24.8 °F 24.1 °F 73% 30.41 in 10.0 mi NNE 8.1 mph - N/A   Clear
8:35 AM 32.2 °F 22.7 °F 23.2 °F 69% 30.41 in 10.0 mi North 12.7 mph - N/A   Scattered Clouds
8:55 AM 34.3 °F 24.6 °F 21.6 °F 60% 30.41 in 10.0 mi North 15.0 mph 19.6 mph N/A   Clear
9:15 AM 34.9 °F 26.6 °F 20.7 °F 56% 30.43 in 10.0 mi North 11.5 mph 18.4 mph N/A   Clear
9:35 AM 36.7 °F 31.2 °F 19.2 °F 49% 30.43 in 10.0 mi North 6.9 mph - N/A   Clear
9:55 AM 37.6 °F 30.0 °F 17.8 °F 45% 30.44 in 10.0 mi North 11.5 mph - N/A   Clear
10:15 AM 38.8 °F 30.0 °F 16.0 °F 40% 30.45 in 10.0 mi North 16.1 mph 21.9 mph N/A   Clear
10:35 AM 39.2 °F 30.8 °F 14.4 °F 36% 30.45 in 10.0 mi NNE 15.0 mph 20.7 mph N/A   Clear
10:55 AM 40.5 °F 32.5 °F 14.0 °F 34% 30.46 in 10.0 mi NNE 15.0 mph 21.9 mph N/A   Clear
11:15 AM 40.6 °F 33.4 °F 12.4 °F 32% 30.47 in 10.0 mi North 12.7 mph 17.3 mph N/A   Clear
11:35 AM 41.9 °F 35.4 °F 14.5 °F 33% 30.46 in 10.0 mi NNE 11.5 mph 17.3 mph N/A   Clear
11:55 AM 42.1 °F 37.1 °F 12.2 °F 30% 30.46 in 10.0 mi NNE 8.1 mph - N/A   Clear
12:15 PM 43.2 °F 36.6 °F 13.8 °F 31% 30.46 in 10.0 mi North 12.7 mph 18.4 mph N/A   Clear
12:35 PM 43.2 °F 38.4 °F 14.0 °F 31% 30.45 in 10.0 mi NNE 8.1 mph 17.3 mph N/A   Clear
12:55 PM 43.9 °F 38.8 °F 15.6 °F 32% 30.44 in 10.0 mi NNE 9.2 mph 19.6 mph N/A   Clear
1:15 PM 44.4 °F 38.6 °F 16.2 °F 32% 30.44 in 10.0 mi NNE 11.5 mph 19.6 mph N/A   Clear
1:35 PM 44.8 °F 38.7 °F 16.0 °F 31% 30.43 in 10.0 mi North 12.7 mph 17.3 mph N/A   Clear
1:55 PM 45.9 °F 40.8 °F 16.5 °F 31% 30.43 in 10.0 mi NNE 10.4 mph - N/A   Clear
2:15 PM 46.0 °F 40.2 °F 17.8 °F 32% 30.42 in 10.0 mi NE 12.7 mph 18.4 mph N/A   Clear
2:35 PM 46.2 °F 40.1 °F 18.5 °F 33% 30.42 in 10.0 mi NNE 13.8 mph 19.6 mph N/A   Clear
2:55 PM 46.6 °F - 19.4 °F 34% 30.41 in 10.0 mi NNE 16.1 mph 23.0 mph N/A   Clear
3:15 PM 46.0 °F 40.6 °F 19.2 °F 34% 30.41 in 10.0 mi NNE 11.5 mph 19.6 mph N/A   Clear
3:35 PM 46.2 °F 39.8 °F 19.8 °F 35% 30.42 in 10.0 mi NNE 15.0 mph 23.0 mph N/A   Clear
3:55 PM 46.0 °F 39.6 °F 19.8 °F 35% 30.42 in 10.0 mi NNE 15.0 mph 20.7 mph N/A   Clear
4:15 PM 46.0 °F 39.9 °F 20.5 °F 36% 30.41 in 10.0 mi NNE 13.8 mph 20.7 mph N/A   Clear
4:35 PM 45.3 °F 39.0 °F 20.5 °F 37% 30.42 in 10.0 mi NNE 13.8 mph - N/A   Clear
4:55 PM 44.6 °F 40.2 °F 20.5 °F 38% 30.43 in 10.0 mi NNE 8.1 mph 17.3 mph N/A   Clear
5:15 PM 43.7 °F 38.1 °F 20.8 °F 40% 30.43 in 10.0 mi North 10.4 mph - N/A   Clear
5:35 PM 42.3 °F 37.3 °F 21.6 °F 44% 30.43 in 10.0 mi North 8.1 mph - N/A   Clear
5:55 PM 40.1 °F 35.3 °F 22.5 °F 49% 30.43 in 10.0 mi NE 6.9 mph - N/A   Clear
6:15 PM 38.5 °F 34.1 °F 23.0 °F 54% 30.44 in 10.0 mi NE 5.8 mph - N/A   Clear
6:35 PM 36.7 °F 32.0 °F 23.5 °F 59% 30.44 in 10.0 mi NE 5.8 mph - N/A   Clear
6:55 PM 36.3 °F - 23.5 °F 60% 30.45 in 10.0 mi Calm Calm - N/A   Clear
7:15 PM 32.2 °F - 23.0 °F 69% 30.46 in 10.0 mi Calm Calm - N/A   Clear
7:35 PM 32.4 °F - 22.6 °F 67% 30.47 in 10.0 mi Calm Calm - N/A   Clear
7:55 PM 29.8 °F 26.3 °F 23.9 °F 79% 30.47 in 10.0 mi WSW 3.5 mph - N/A   Clear
8:15 PM 31.5 °F - 22.8 °F 70% 30.47 in 10.0 mi Calm Calm - N/A   Clear
8:35 PM 28.4 °F - 22.8 °F 80% 30.47 in 10.0 mi Calm Calm - N/A   Clear
8:55 PM 27.9 °F - 22.8 °F 81% 30.48 in 10.0 mi Calm Calm - N/A   Clear
9:15 PM 27.9 °F 22.6 °F 23.0 °F 82% 30.48 in 10.0 mi WNW 4.6 mph - N/A   Clear
9:35 PM 26.4 °F 19.8 °F 22.8 °F 86% 30.49 in 10.0 mi SW 5.8 mph - N/A   Clear
9:55 PM 28.0 °F 22.8 °F 22.8 °F 81% 30.48 in 10.0 mi SW 4.6 mph - N/A   Clear
10:15 PM 26.4 °F 19.8 °F 22.6 °F 86% 30.49 in 10.0 mi SSW 5.8 mph - N/A   Clear
10:35 PM 27.0 °F - 23.0 °F 85% 30.48 in 10.0 mi Calm Calm - N/A   Clear
10:55 PM 26.2 °F - 23.0 °F 88% 30.48 in 10.0 mi Calm Calm - N/A   Clear
11:15 PM 26.2 °F 19.6 °F 23.0 °F 88% 30.48 in 10.0 mi South 5.8 mph - N/A   Clear
11:35 PM 25.7 °F 19.0 °F 23.0 °F 89% 30.48 in 10.0 mi South 5.8 mph - N/A   Clear
11:55 PM 25.3 °F 18.5 °F 22.6 °F 89% 30.48 in 10.0 mi SSW 5.8 mph - N/A   Clear